sensor_id;sensor_type;location;lat;lon;timestamp;pressure;altitude;pressure_sealevel;temperature;humidity
11339;BME280;5724;42.684;23.252;2023-07-31T00:01:42;94061.56;;;20.49;82.04
11339;BME280;5724;42.684;23.252;2023-07-31T00:04:08;94061.13;;;20.50;81.36
11339;BME280;5724;42.684;23.252;2023-07-31T00:06:33;94059.91;;;20.51;82.22
11339;BME280;5724;42.684;23.252;2023-07-31T00:08:59;94057.66;;;20.46;82.47
11339;BME280;5724;42.684;23.252;2023-07-31T00:11:25;94054.28;;;20.15;86.14
11339;BME280;5724;42.684;23.252;2023-07-31T00:13:50;94061.81;;;19.95;88.72
11339;BME280;5724;42.684;23.252;2023-07-31T00:16:16;94056.50;;;20.04;90.01
11339;BME280;5724;42.684;23.252;2023-07-31T00:18:41;94057.47;;;19.74;92.27
11339;BME280;5724;42.684;23.252;2023-07-31T00:21:06;94048.84;;;19.68;93.26
11339;BME280;5724;42.684;23.252;2023-07-31T00:23:32;94048.66;;;19.79;92.65
11339;BME280;5724;42.684;23.252;2023-07-31T00:25:57;94047.06;;;19.78;92.40
11339;BME280;5724;42.684;23.252;2023-07-31T00:28:23;94034.44;;;19.77;93.08
11339;BME280;5724;42.684;23.252;2023-07-31T00:30:48;94022.13;;;19.78;93.57
11339;BME280;5724;42.684;23.252;2023-07-31T00:33:13;94025.31;;;19.57;94.23
11339;BME280;5724;42.684;23.252;2023-07-31T00:35:39;94016.03;;;19.43;96.06
11339;BME280;5724;42.684;23.252;2023-07-31T00:38:04;94010.84;;;19.45;96.12
11339;BME280;5724;42.684;23.252;2023-07-31T00:40:34;94013.81;;;19.35;95.93
11339;BME280;5724;42.684;23.252;2023-07-31T00:43:00;94015.72;;;19.38;96.29
11339;BME280;5724;42.684;23.252;2023-07-31T00:45:25;94021.06;;;19.49;95.89
11339;BME280;5724;42.684;23.252;2023-07-31T00:47:52;94021.31;;;19.58;96.05
11339;BME280;5724;42.684;23.252;2023-07-31T00:50:18;94027.88;;;19.67;95.38
11339;BME280;5724;42.684;23.252;2023-07-31T00:52:44;94019.63;;;19.64;95.04
11339;BME280;5724;42.684;23.252;2023-07-31T00:55:09;94025.50;;;19.69;95.12
11339;BME280;5724;42.684;23.252;2023-07-31T00:57:36;94019.03;;;19.53;96.40
11339;BME280;5724;42.684;23.252;2023-07-31T01:00:03;94011.56;;;19.50;97.10
11339;BME280;5724;42.684;23.252;2023-07-31T01:02:29;94016.69;;;19.51;96.67
11339;BME280;5724;42.684;23.252;2023-07-31T01:04:54;94003.25;;;19.50;96.40
11339;BME280;5724;42.684;23.252;2023-07-31T01:10:06;94015.66;;;19.65;96.04
11339;BME280;5724;42.684;23.252;2023-07-31T01:12:34;94017.94;;;19.70;96.34
11339;BME280;5724;42.684;23.252;2023-07-31T01:15:08;94005.50;;;19.78;95.59
11339;BME280;5724;42.684;23.252;2023-07-31T01:17:39;94008.91;;;19.66;96.04
11339;BME280;5724;42.684;23.252;2023-07-31T01:20:11;93997.03;;;19.65;96.54
11339;BME280;5724;42.684;23.252;2023-07-31T01:28:20;94003.03;;;19.40;98.93
11339;BME280;5724;42.684;23.252;2023-07-31T01:30:50;94002.84;;;19.51;98.57
11339;BME280;5724;42.684;23.252;2023-07-31T01:33:16;94003.25;;;19.50;99.32
11339;BME280;5724;42.684;23.252;2023-07-31T01:35:44;94000.97;;;19.44;99.95
11339;BME280;5724;42.684;23.252;2023-07-31T01:38:10;94003.50;;;19.35;100.00
11339;BME280;5724;42.684;23.252;2023-07-31T01:40:35;93994.53;;;19.28;100.00
11339;BME280;5724;42.684;23.252;2023-07-31T01:43:01;93998.09;;;19.28;100.00
11339;BME280;5724;42.684;23.252;2023-07-31T01:45:26;93996.03;;;19.09;100.00
11339;BME280;5724;42.684;23.252;2023-07-31T01:47:52;93987.72;;;19.09;100.00
11339;BME280;5724;42.684;23.252;2023-07-31T01:50:17;94004.66;;;19.14;100.00
11339;BME280;5724;42.684;23.252;2023-07-31T01:52:43;93997.59;;;19.10;100.00
11339;BME280;5724;42.684;23.252;2023-07-31T01:55:08;94000.94;;;19.01;100.00
11339;BME280;5724;42.684;23.252;2023-07-31T01:57:36;93992.78;;;18.91;100.00
11339;BME280;5724;42.684;23.252;2023-07-31T02:00:02;94004.25;;;18.93;100.00
11339;BME280;5724;42.684;23.252;2023-07-31T02:02:27;93975.72;;;18.72;100.00
11339;BME280;5724;42.684;23.252;2023-07-31T02:04:53;93995.19;;;18.88;100.00
11339;BME280;5724;42.684;23.252;2023-07-31T02:07:18;94003.72;;;19.01;100.00
11339;BME280;5724;42.684;23.252;2023-07-31T02:09:43;94009.78;;;18.93;100.00
11339;BME280;5724;42.684;23.252;2023-07-31T02:12:09;94011.22;;;19.01;100.00
11339;BME280;5724;42.684;23.252;2023-07-31T02:14:34;94010.91;;;18.95;100.00
11339;BME280;5724;42.684;23.252;2023-07-31T02:17:00;94006.06;;;19.03;100.00
11339;BME280;5724;42.684;23.252;2023-07-31T02:19:26;94006.34;;;19.08;100.00
11339;BME280;5724;42.684;23.252;2023-07-31T02:21:51;94013.56;;;19.02;100.00
11339;BME280;5724;42.684;23.252;2023-07-31T02:24:17;93995.75;;;19.03;100.00
11339;BME280;5724;42.684;23.252;2023-07-31T02:26:42;94001.22;;;19.07;100.00
11339;BME280;5724;42.684;23.252;2023-07-31T02:29:08;94011.56;;;19.26;100.00
11339;BME280;5724;42.684;23.252;2023-07-31T02:31:33;94013.91;;;19.28;100.00
11339;BME280;5724;42.684;23.252;2023-07-31T02:33:59;94019.22;;;19.42;100.00
11339;BME280;5724;42.684;23.252;2023-07-31T02:36:24;94009.63;;;19.47;100.00
11339;BME280;5724;42.684;23.252;2023-07-31T02:38:50;94011.75;;;19.62;100.00
11339;BME280;5724;42.684;23.252;2023-07-31T02:41:15;94014.31;;;19.73;100.00
11339;BME280;5724;42.684;23.252;2023-07-31T02:43:41;94017.94;;;19.70;100.00
11339;BME280;5724;42.684;23.252;2023-07-31T02:46:06;94023.63;;;19.83;100.00
11339;BME280;5724;42.684;23.252;2023-07-31T02:48:32;94027.66;;;19.78;100.00
11339;BME280;5724;42.684;23.252;2023-07-31T02:50:57;94030.09;;;19.96;100.00
11339;BME280;5724;42.684;23.252;2023-07-31T02:53:22;94027.50;;;20.09;98.81
11339;BME280;5724;42.684;23.252;2023-07-31T02:55:48;94026.41;;;20.02;99.09
11339;BME280;5724;42.684;23.252;2023-07-31T02:58:13;94024.50;;;19.99;99.51
11339;BME280;5724;42.684;23.252;2023-07-31T03:00:43;94031.97;;;19.83;100.00
11339;BME280;5724;42.684;23.252;2023-07-31T03:03:09;94037.81;;;19.88;100.00
11339;BME280;5724;42.684;23.252;2023-07-31T03:05:34;94032.03;;;19.79;100.00
11339;BME280;5724;42.684;23.252;2023-07-31T03:08:01;94033.94;;;19.62;100.00
11339;BME280;5724;42.684;23.252;2023-07-31T03:10:26;94035.56;;;19.60;100.00
11339;BME280;5724;42.684;23.252;2023-07-31T03:12:52;94040.38;;;19.56;100.00
11339;BME280;5724;42.684;23.252;2023-07-31T03:15:17;94036.91;;;19.48;100.00
11339;BME280;5724;42.684;23.252;2023-07-31T03:17:43;94038.06;;;19.51;100.00
11339;BME280;5724;42.684;23.252;2023-07-31T03:20:09;94046.00;;;19.49;100.00
11339;BME280;5724;42.684;23.252;2023-07-31T03:22:34;94039.28;;;19.50;100.00
11339;BME280;5724;42.684;23.252;2023-07-31T03:25:03;94037.66;;;19.29;100.00
11339;BME280;5724;42.684;23.252;2023-07-31T03:27:29;94041.41;;;19.42;100.00
11339;BME280;5724;42.684;23.252;2023-07-31T03:29:54;94051.81;;;19.58;100.00
11339;BME280;5724;42.684;23.252;2023-07-31T03:32:19;94042.75;;;19.54;100.00
11339;BME280;5724;42.684;23.252;2023-07-31T03:34:45;94043.50;;;19.58;100.00
11339;BME280;5724;42.684;23.252;2023-07-31T03:37:10;94058.38;;;19.67;100.00
11339;BME280;5724;42.684;23.252;2023-07-31T03:39:36;94062.28;;;19.47;100.00
11339;BME280;5724;42.684;23.252;2023-07-31T03:42:01;94057.53;;;19.24;100.00
11339;BME280;5724;42.684;23.252;2023-07-31T03:44:27;94065.13;;;19.43;100.00
11339;BME280;5724;42.684;23.252;2023-07-31T03:46:53;94071.66;;;19.29;100.00
11339;BME280;5724;42.684;23.252;2023-07-31T03:49:18;94069.38;;;19.24;100.00
11339;BME280;5724;42.684;23.252;2023-07-31T03:51:43;94065.88;;;19.20;100.00
11339;BME280;5724;42.684;23.252;2023-07-31T03:54:09;94076.84;;;19.27;100.00
11339;BME280;5724;42.684;23.252;2023-07-31T03:56:35;94067.88;;;19.20;100.00
11339;BME280;5724;42.684;23.252;2023-07-31T03:59:00;94064.56;;;19.28;100.00
11339;BME280;5724;42.684;23.252;2023-07-31T04:01:26;94073.53;;;19.36;100.00
11339;BME280;5724;42.684;23.252;2023-07-31T04:03:51;94071.97;;;19.35;100.00
11339;BME280;5724;42.684;23.252;2023-07-31T04:06:17;94076.25;;;19.39;100.00
11339;BME280;5724;42.684;23.252;2023-07-31T04:08:44;94076.19;;;19.20;100.00
11339;BME280;5724;42.684;23.252;2023-07-31T04:11:10;94063.00;;;19.27;100.00
11339;BME280;5724;42.684;23.252;2023-07-31T04:13:36;94079.50;;;19.34;100.00
11339;BME280;5724;42.684;23.252;2023-07-31T04:16:02;94089.03;;;19.33;100.00
11339;BME280;5724;42.684;23.252;2023-07-31T04:18:27;94084.63;;;19.36;100.00
11339;BME280;5724;42.684;23.252;2023-07-31T04:20:53;94090.25;;;19.56;100.00
11339;BME280;5724;42.684;23.252;2023-07-31T04:23:18;94086.88;;;19.68;100.00
11339;BME280;5724;42.684;23.252;2023-07-31T04:25:45;94084.72;;;19.79;100.00
11339;BME280;5724;42.684;23.252;2023-07-31T04:28:11;94089.47;;;19.79;100.00
11339;BME280;5724;42.684;23.252;2023-07-31T04:30:36;94096.03;;;19.88;99.94
11339;BME280;5724;42.684;23.252;2023-07-31T04:33:02;94099.28;;;19.83;99.99
11339;BME280;5724;42.684;23.252;2023-07-31T04:35:28;94095.50;;;19.73;99.39
11339;BME280;5724;42.684;23.252;2023-07-31T04:37:54;94095.88;;;19.95;98.61
11339;BME280;5724;42.684;23.252;2023-07-31T04:40:21;94091.53;;;19.94;98.03
11339;BME280;5724;42.684;23.252;2023-07-31T04:42:46;94080.94;;;19.89;97.90
11339;BME280;5724;42.684;23.252;2023-07-31T04:45:12;94085.63;;;19.92;98.07
11339;BME280;5724;42.684;23.252;2023-07-31T04:47:37;94088.72;;;19.98;97.57
11339;BME280;5724;42.684;23.252;2023-07-31T04:50:03;94086.28;;;20.00;97.79
11339;BME280;5724;42.684;23.252;2023-07-31T04:52:29;94081.53;;;20.00;97.36
11339;BME280;5724;42.684;23.252;2023-07-31T04:54:54;94091.50;;;20.18;96.32
11339;BME280;5724;42.684;23.252;2023-07-31T04:57:19;94076.78;;;20.21;95.45
11339;BME280;5724;42.684;23.252;2023-07-31T04:59:45;94082.66;;;20.23;95.15
11339;BME280;5724;42.684;23.252;2023-07-31T05:02:12;94070.94;;;20.15;95.16
11339;BME280;5724;42.684;23.252;2023-07-31T05:04:38;94083.44;;;20.23;95.35
11339;BME280;5724;42.684;23.252;2023-07-31T05:07:04;94084.38;;;20.17;95.70
11339;BME280;5724;42.684;23.252;2023-07-31T05:09:29;94084.31;;;20.20;95.60
11339;BME280;5724;42.684;23.252;2023-07-31T05:11:54;94069.16;;;20.25;94.61
11339;BME280;5724;42.684;23.252;2023-07-31T05:14:20;94078.41;;;20.18;95.57
11339;BME280;5724;42.684;23.252;2023-07-31T05:16:45;94082.41;;;20.17;93.09
11339;BME280;5724;42.684;23.252;2023-07-31T05:19:11;94080.66;;;20.04;94.19
11339;BME280;5724;42.684;23.252;2023-07-31T05:21:37;94082.50;;;19.90;94.69
11339;BME280;5724;42.684;23.252;2023-07-31T05:24:02;94078.44;;;19.95;93.83
11339;BME280;5724;42.684;23.252;2023-07-31T05:26:28;94082.50;;;19.90;94.23
11339;BME280;5724;42.684;23.252;2023-07-31T05:28:53;94086.63;;;19.82;93.57
11339;BME280;5724;42.684;23.252;2023-07-31T05:31:19;94077.56;;;19.78;92.81
11339;BME280;5724;42.684;23.252;2023-07-31T05:33:46;94107.81;;;19.92;93.75
11339;BME280;5724;42.684;23.252;2023-07-31T05:36:11;94094.63;;;20.00;91.63
11339;BME280;5724;42.684;23.252;2023-07-31T05:38:37;94086.56;;;20.06;90.70
11339;BME280;5724;42.684;23.252;2023-07-31T05:41:02;94085.22;;;20.14;90.84
11339;BME280;5724;42.684;23.252;2023-07-31T05:43:28;94083.41;;;20.27;89.65
11339;BME280;5724;42.684;23.252;2023-07-31T05:45:53;94068.66;;;20.30;88.00
11339;BME280;5724;42.684;23.252;2023-07-31T05:48:18;94076.22;;;20.49;87.91
11339;BME280;5724;42.684;23.252;2023-07-31T05:50:44;94082.25;;;20.44;84.26
11339;BME280;5724;42.684;23.252;2023-07-31T05:53:09;94074.69;;;20.25;85.66
11339;BME280;5724;42.684;23.252;2023-07-31T05:55:35;94081.31;;;20.31;85.55
11339;BME280;5724;42.684;23.252;2023-07-31T05:58:01;94103.72;;;20.40;83.96
11339;BME280;5724;42.684;23.252;2023-07-31T06:00:27;94092.13;;;20.25;83.86
11339;BME280;5724;42.684;23.252;2023-07-31T06:02:53;94094.53;;;20.23;83.67
11339;BME280;5724;42.684;23.252;2023-07-31T06:05:18;94097.75;;;20.42;82.49
11339;BME280;5724;42.684;23.252;2023-07-31T06:07:43;94090.41;;;20.32;79.08
11339;BME280;5724;42.684;23.252;2023-07-31T06:10:09;94104.06;;;20.42;81.81
11339;BME280;5724;42.684;23.252;2023-07-31T06:12:35;94104.03;;;20.46;81.28
11339;BME280;5724;42.684;23.252;2023-07-31T06:15:02;94132.59;;;20.46;79.73
11339;BME280;5724;42.684;23.252;2023-07-31T06:17:28;94102.94;;;20.40;80.17
11339;BME280;5724;42.684;23.252;2023-07-31T06:19:54;94098.25;;;20.37;80.54
11339;BME280;5724;42.684;23.252;2023-07-31T06:22:19;94105.59;;;20.27;82.25
11339;BME280;5724;42.684;23.252;2023-07-31T06:24:45;94098.66;;;20.35;80.91
11339;BME280;5724;42.684;23.252;2023-07-31T06:27:11;94101.66;;;20.24;81.62
11339;BME280;5724;42.684;23.252;2023-07-31T06:29:36;94096.44;;;20.07;82.56
11339;BME280;5724;42.684;23.252;2023-07-31T06:32:02;94112.63;;;20.12;81.94
11339;BME280;5724;42.684;23.252;2023-07-31T06:34:28;94113.91;;;20.27;82.54
11339;BME280;5724;42.684;23.252;2023-07-31T06:36:53;94111.53;;;20.06;81.90
11339;BME280;5724;42.684;23.252;2023-07-31T06:39:18;94119.59;;;20.20;82.34
11339;BME280;5724;42.684;23.252;2023-07-31T06:41:44;94110.13;;;20.37;82.30
11339;BME280;5724;42.684;23.252;2023-07-31T06:44:10;94124.03;;;20.57;80.75
11339;BME280;5724;42.684;23.252;2023-07-31T06:46:36;94112.06;;;20.60;82.13
11339;BME280;5724;42.684;23.252;2023-07-31T06:49:01;94116.53;;;20.74;80.75
11339;BME280;5724;42.684;23.252;2023-07-31T06:51:27;94118.47;;;20.77;79.47
11339;BME280;5724;42.684;23.252;2023-07-31T06:53:52;94125.94;;;20.80;79.13
11339;BME280;5724;42.684;23.252;2023-07-31T06:56:18;94114.41;;;20.62;80.01
11339;BME280;5724;42.684;23.252;2023-07-31T06:58:43;94123.81;;;20.48;79.00
11339;BME280;5724;42.684;23.252;2023-07-31T07:01:08;94109.50;;;20.29;79.10
11339;BME280;5724;42.684;23.252;2023-07-31T07:03:34;94094.75;;;20.13;80.20
11339;BME280;5724;42.684;23.252;2023-07-31T07:06:00;94111.53;;;20.06;79.93
11339;BME280;5724;42.684;23.252;2023-07-31T07:08:25;94112.38;;;20.02;79.93
11339;BME280;5724;42.684;23.252;2023-07-31T07:10:51;94114.94;;;19.93;80.37
11339;BME280;5724;42.684;23.252;2023-07-31T07:13:16;94094.84;;;20.09;80.35
11339;BME280;5724;42.684;23.252;2023-07-31T07:15:47;94109.50;;;20.29;79.37
11339;BME280;5724;42.684;23.252;2023-07-31T07:18:13;94104.53;;;20.61;78.13
11339;BME280;5724;42.684;23.252;2023-07-31T07:20:39;94102.28;;;20.72;78.10
11339;BME280;5724;42.684;23.252;2023-07-31T07:23:04;94095.97;;;21.07;75.83
11339;BME280;5724;42.684;23.252;2023-07-31T07:25:30;94105.81;;;21.28;76.13
11339;BME280;5724;42.684;23.252;2023-07-31T07:27:55;94111.28;;;21.32;75.46
11339;BME280;5724;42.684;23.252;2023-07-31T07:30:21;94106.13;;;21.14;75.66
11339;BME280;5724;42.684;23.252;2023-07-31T07:32:46;94106.03;;;21.18;73.18
11339;BME280;5724;42.684;23.252;2023-07-31T07:35:12;94093.00;;;20.98;73.49
11339;BME280;5724;42.684;23.252;2023-07-31T07:37:37;94113.75;;;21.10;74.05
11339;BME280;5724;42.684;23.252;2023-07-31T07:40:03;94107.75;;;21.11;74.69
11339;BME280;5724;42.684;23.252;2023-07-31T07:42:28;94115.72;;;21.29;73.80
11339;BME280;5724;42.684;23.252;2023-07-31T07:44:54;94118.56;;;21.26;74.37
11339;BME280;5724;42.684;23.252;2023-07-31T07:47:19;94110.22;;;21.26;74.83
11339;BME280;5724;42.684;23.252;2023-07-31T07:49:45;94114.94;;;21.61;73.55
11339;BME280;5724;42.684;23.252;2023-07-31T07:52:10;94162.38;;;21.54;71.95
11339;BME280;5724;42.684;23.252;2023-07-31T07:54:35;94121.53;;;21.35;72.34
11339;BME280;5724;42.684;23.252;2023-07-31T07:57:01;94114.50;;;21.47;71.96
11339;BME280;5724;42.684;23.252;2023-07-31T07:59:27;94126.50;;;21.43;71.82
11339;BME280;5724;42.684;23.252;2023-07-31T08:01:52;94124.56;;;21.89;70.53
11339;BME280;5724;42.684;23.252;2023-07-31T08:04:18;94128.81;;;21.61;71.63
11339;BME280;5724;42.684;23.252;2023-07-31T08:06:44;94122.75;;;21.50;69.50
11339;BME280;5724;42.684;23.252;2023-07-31T08:09:09;94120.31;;;21.68;69.67
11339;BME280;5724;42.684;23.252;2023-07-31T08:11:35;94124.13;;;21.91;69.73
11339;BME280;5724;42.684;23.252;2023-07-31T08:14:00;94123.41;;;22.03;68.91
11339;BME280;5724;42.684;23.252;2023-07-31T08:16:26;94134.53;;;22.19;67.48
11339;BME280;5724;42.684;23.252;2023-07-31T08:18:51;94114.34;;;22.32;67.91
11339;BME280;5724;42.684;23.252;2023-07-31T08:21:17;94145.31;;;22.17;65.46
11339;BME280;5724;42.684;23.252;2023-07-31T08:23:42;94121.91;;;22.31;67.15
11339;BME280;5724;42.684;23.252;2023-07-31T08:26:07;94124.63;;;22.47;65.65
11339;BME280;5724;42.684;23.252;2023-07-31T08:28:33;94146.38;;;22.65;65.16
11339;BME280;5724;42.684;23.252;2023-07-31T08:31:00;94154.53;;;22.72;64.96
11339;BME280;5724;42.684;23.252;2023-07-31T08:33:44;94113.25;;;22.42;66.07
11339;BME280;5724;42.684;23.252;2023-07-31T08:36:09;94107.59;;;22.58;65.42
11339;BME280;5724;42.684;23.252;2023-07-31T08:38:35;94131.00;;;22.90;65.06
11339;BME280;5724;42.684;23.252;2023-07-31T08:41:03;94119.56;;;22.71;65.00
11339;BME280;5724;42.684;23.252;2023-07-31T08:43:49;94114.19;;;22.64;65.24
11339;BME280;5724;42.684;23.252;2023-07-31T08:46:15;94121.59;;;22.42;64.61
11339;BME280;5724;42.684;23.252;2023-07-31T08:48:44;94126.41;;;22.54;63.97
11339;BME280;5724;42.684;23.252;2023-07-31T08:51:29;94122.56;;;22.77;63.51
11339;BME280;5724;42.684;23.252;2023-07-31T08:53:55;94115.41;;;22.50;63.35
11339;BME280;5724;42.684;23.252;2023-07-31T08:56:20;94128.91;;;22.77;62.15
11339;BME280;5724;42.684;23.252;2023-07-31T08:58:47;94126.22;;;22.61;61.87
11339;BME280;5724;42.684;23.252;2023-07-31T09:01:13;94129.41;;;22.47;61.49
11339;BME280;5724;42.684;23.252;2023-07-31T09:03:40;94110.41;;;23.00;61.97
11339;BME280;5724;42.684;23.252;2023-07-31T09:06:07;94114.19;;;23.44;61.08
11339;BME280;5724;42.684;23.252;2023-07-31T09:08:32;94111.28;;;23.35;61.31
11339;BME280;5724;42.684;23.252;2023-07-31T09:11:00;94060.34;;;23.09;60.55
11339;BME280;5724;42.684;23.252;2023-07-31T09:13:28;94105.38;;;23.20;61.12
11339;BME280;5724;42.684;23.252;2023-07-31T09:15:53;94098.81;;;23.27;62.37
11339;BME280;5724;42.684;23.252;2023-07-31T09:18:19;94088.09;;;23.63;61.51
11339;BME280;5724;42.684;23.252;2023-07-31T09:21:00;94089.53;;;24.03;59.44
11339;BME280;5724;42.684;23.252;2023-07-31T09:23:40;94092.19;;;23.84;60.95
11339;BME280;5724;42.684;23.252;2023-07-31T09:26:05;94102.03;;;24.11;59.75
11339;BME280;5724;42.684;23.252;2023-07-31T09:28:31;94088.53;;;24.09;59.65
11339;BME280;5724;42.684;23.252;2023-07-31T09:30:57;94083.72;;;24.10;58.90
11339;BME280;5724;42.684;23.252;2023-07-31T09:33:22;94093.03;;;24.28;57.99
11339;BME280;5724;42.684;23.252;2023-07-31T09:35:47;94089.50;;;24.72;58.19
11339;BME280;5724;42.684;23.252;2023-07-31T09:38:14;94087.59;;;24.25;57.33
11339;BME280;5724;42.684;23.252;2023-07-31T09:40:44;94095.28;;;24.55;57.82
11339;BME280;5724;42.684;23.252;2023-07-31T09:43:12;94075.03;;;24.42;57.24
11339;BME280;5724;42.684;23.252;2023-07-31T09:45:42;94083.97;;;24.81;56.38
11339;BME280;5724;42.684;23.252;2023-07-31T09:48:16;94088.72;;;24.71;55.07
11339;BME280;5724;42.684;23.252;2023-07-31T09:50:43;94080.84;;;24.57;56.13
11339;BME280;5724;42.684;23.252;2023-07-31T09:53:09;94089.91;;;24.61;55.65
11339;BME280;5724;42.684;23.252;2023-07-31T09:55:36;94081.22;;;24.68;55.71
11339;BME280;5724;42.684;23.252;2023-07-31T09:58:08;94101.84;;;24.27;56.58
11339;BME280;5724;42.684;23.252;2023-07-31T10:00:35;94074.78;;;24.15;57.21
11339;BME280;5724;42.684;23.252;2023-07-31T10:03:04;94069.88;;;24.41;56.41
11339;BME280;5724;42.684;23.252;2023-07-31T10:06:02;94061.06;;;24.30;56.79
11339;BME280;5724;42.684;23.252;2023-07-31T10:08:30;94041.94;;;24.41;54.99
11339;BME280;5724;42.684;23.252;2023-07-31T10:11:00;94059.16;;;24.39;54.49
11339;BME280;5724;42.684;23.252;2023-07-31T10:13:28;94075.72;;;24.55;53.64
11339;BME280;5724;42.684;23.252;2023-07-31T10:15:58;94072.63;;;24.53;54.63
11339;BME280;5724;42.684;23.252;2023-07-31T10:18:25;94065.50;;;24.83;54.77
11339;BME280;5724;42.684;23.252;2023-07-31T10:20:52;94093.28;;;24.87;53.77
11339;BME280;5724;42.684;23.252;2023-07-31T10:23:18;94077.75;;;24.33;54.24
11339;BME280;5724;42.684;23.252;2023-07-31T10:25:44;94077.59;;;24.02;55.57
11339;BME280;5724;42.684;23.252;2023-07-31T10:28:11;94067.41;;;23.86;55.14
11339;BME280;5724;42.684;23.252;2023-07-31T10:30:37;94065.50;;;24.18;53.96
11339;BME280;5724;42.684;23.252;2023-07-31T10:33:05;94064.09;;;24.35;53.07
11339;BME280;5724;42.684;23.252;2023-07-31T10:35:30;94056.31;;;24.52;53.02
11339;BME280;5724;42.684;23.252;2023-07-31T10:38:09;94065.00;;;24.54;53.23
11339;BME280;5724;42.684;23.252;2023-07-31T10:40:35;94053.13;;;24.94;52.39
11339;BME280;5724;42.684;23.252;2023-07-31T10:43:01;94049.16;;;24.73;52.83
11339;BME280;5724;42.684;23.252;2023-07-31T10:48:15;94042.72;;;25.25;48.69
11339;BME280;5724;42.684;23.252;2023-07-31T10:50:52;94058.69;;;25.65;47.85
11339;BME280;5724;42.684;23.252;2023-07-31T10:53:31;94059.72;;;25.40;48.56
11339;BME280;5724;42.684;23.252;2023-07-31T10:56:02;94043.88;;;25.55;47.28
11339;BME280;5724;42.684;23.252;2023-07-31T10:58:29;94037.84;;;25.66;46.96
11339;BME280;5724;42.684;23.252;2023-07-31T11:00:58;94032.47;;;25.90;46.55
11339;BME280;5724;42.684;23.252;2023-07-31T11:03:41;94035.56;;;25.74;46.92
11339;BME280;5724;42.684;23.252;2023-07-31T11:06:07;94033.78;;;25.49;46.94
11339;BME280;5724;42.684;23.252;2023-07-31T11:08:34;94028.22;;;25.58;46.40
11339;BME280;5724;42.684;23.252;2023-07-31T11:16:04;94045.47;;;25.65;45.93
11339;BME280;5724;42.684;23.252;2023-07-31T11:18:29;94021.97;;;25.54;46.39
11339;BME280;5724;42.684;23.252;2023-07-31T11:20:55;94055.47;;;25.76;45.68
11339;BME280;5724;42.684;23.252;2023-07-31T11:23:21;94014.13;;;25.89;45.95
11339;BME280;5724;42.684;23.252;2023-07-31T11:25:47;94041.94;;;25.74;45.53
11339;BME280;5724;42.684;23.252;2023-07-31T11:28:15;94021.34;;;25.50;46.58
11339;BME280;5724;42.684;23.252;2023-07-31T11:30:42;94044.06;;;25.61;46.12
11339;BME280;5724;42.684;23.252;2023-07-31T11:33:09;94030.78;;;25.34;49.42
11339;BME280;5724;42.684;23.252;2023-07-31T11:35:41;94038.75;;;25.04;49.83
11339;BME280;5724;42.684;23.252;2023-07-31T11:38:11;94044.22;;;24.86;48.97
11339;BME280;5724;42.684;23.252;2023-07-31T11:40:41;94042.78;;;24.50;50.19
11339;BME280;5724;42.684;23.252;2023-07-31T11:43:07;94027.47;;;24.86;49.49
11339;BME280;5724;42.684;23.252;2023-07-31T11:45:33;94022.31;;;25.06;49.90
11339;BME280;5724;42.684;23.252;2023-07-31T11:47:58;94045.94;;;25.15;47.95
11339;BME280;5724;42.684;23.252;2023-07-31T11:50:24;94030.00;;;24.93;48.70
11339;BME280;5724;42.684;23.252;2023-07-31T11:53:00;94019.00;;;24.68;48.71
11339;BME280;5724;42.684;23.252;2023-07-31T11:55:28;94011.50;;;24.96;48.68
11339;BME280;5724;42.684;23.252;2023-07-31T11:57:55;94015.72;;;25.31;47.67
11339;BME280;5724;42.684;23.252;2023-07-31T12:00:22;94005.34;;;25.41;48.62
11339;BME280;5724;42.684;23.252;2023-07-31T12:02:48;94019.50;;;25.56;50.70
11339;BME280;5724;42.684;23.252;2023-07-31T12:05:15;94017.19;;;25.63;49.46
11339;BME280;5724;42.684;23.252;2023-07-31T12:10:26;94025.94;;;25.84;50.40
11339;BME280;5724;42.684;23.252;2023-07-31T12:13:06;94003.22;;;25.73;51.64
11339;BME280;5724;42.684;23.252;2023-07-31T12:18:53;94012.25;;;26.04;48.40
11339;BME280;5724;42.684;23.252;2023-07-31T12:21:33;93998.09;;;25.80;49.44
11339;BME280;5724;42.684;23.252;2023-07-31T12:23:59;94014.38;;;25.63;47.71
11339;BME280;5724;42.684;23.252;2023-07-31T12:26:34;93993.84;;;25.66;46.59
11339;BME280;5724;42.684;23.252;2023-07-31T12:28:59;93991.44;;;25.78;47.77
11339;BME280;5724;42.684;23.252;2023-07-31T12:31:28;93976.81;;;25.92;46.91
11339;BME280;5724;42.684;23.252;2023-07-31T12:33:55;93989.72;;;25.89;47.07
11339;BME280;5724;42.684;23.252;2023-07-31T12:36:23;93998.53;;;26.24;46.84
11339;BME280;5724;42.684;23.252;2023-07-31T12:38:50;93992.66;;;26.41;46.30
11339;BME280;5724;42.684;23.252;2023-07-31T12:41:15;94018.81;;;26.38;45.12
11339;BME280;5724;42.684;23.252;2023-07-31T12:43:42;93995.75;;;26.24;45.45
11339;BME280;5724;42.684;23.252;2023-07-31T12:46:08;93987.38;;;26.06;46.15
11339;BME280;5724;42.684;23.252;2023-07-31T12:48:34;93996.41;;;25.92;46.14
11339;BME280;5724;42.684;23.252;2023-07-31T12:51:00;93989.84;;;25.77;46.72
11339;BME280;5724;42.684;23.252;2023-07-31T12:53:25;93989.50;;;25.56;46.46
11339;BME280;5724;42.684;23.252;2023-07-31T12:55:51;93982.41;;;25.92;45.94
11339;BME280;5724;42.684;23.252;2023-07-31T12:58:16;94004.50;;;26.17;45.41
11339;BME280;5724;42.684;23.252;2023-07-31T13:00:42;93980.97;;;26.15;46.89
11339;BME280;5724;42.684;23.252;2023-07-31T13:03:07;93973.31;;;26.52;47.19
11339;BME280;5724;42.684;23.252;2023-07-31T13:05:33;93968.38;;;26.47;47.21
11339;BME280;5724;42.684;23.252;2023-07-31T13:07:58;93975.22;;;25.63;46.34
11339;BME280;5724;42.684;23.252;2023-07-31T13:10:24;93963.22;;;25.45;47.66
11339;BME280;5724;42.684;23.252;2023-07-31T13:12:52;94007.84;;;25.48;47.05
11339;BME280;5724;42.684;23.252;2023-07-31T13:15:17;93983.06;;;25.28;47.85
11339;BME280;5724;42.684;23.252;2023-07-31T13:17:42;94000.91;;;25.13;46.82